Pittsburgh, Pennsylvania
Traffic Map
Current Weather Conditions
Pittsburgh, Pennsylvania
Clear
Clear
18°
Feels Like: 18°
Wind Chill: 18° Ceiling: Unl
Heat Index: 18° Visibility: 10mi
Dew Point: 16° Wind: 7mph
Humidity: 87% Direction: 160° (SSE)
Pressure: 30.26in Gusts: 0mph
Raw Report DataKAGC 241153Z 16006KT 10SM CLR 18/16 A3026 RMK AO2 SLP244 T01780156 10183 20167 53007
Traffic Incident Summary
Active as of:
Severity:
Category:
InformationThere was an issue retrieving the traffic information for this location. Please try a different location or try again shortly.
Advertisements
Track Severe Weather on mobile